sensor_id;sensor_type;location;lat;lon;timestamp;P1;P2;P0
77354;PMS7003;66422;51.202;19.936;2023-06-24T00:09:23;40.50;32.50;23.00
77354;PMS7003;66422;51.202;19.936;2023-06-24T00:24:43;25.00;23.00;19.00
77354;PMS7003;66422;51.202;19.936;2023-06-24T00:40:03;23.50;20.50;15.00
77354;PMS7003;66422;51.202;19.936;2023-06-24T00:55:24;24.00;22.00;16.00
77354;PMS7003;66422;51.202;19.936;2023-06-24T01:10:43;18.67;17.00;13.00
77354;PMS7003;66422;51.202;19.936;2023-06-24T01:41:54;17.50;15.00;12.50
77354;PMS7003;66422;51.202;19.936;2023-06-24T01:57:19;22.00;18.00;13.00
77354;PMS7003;66422;51.202;19.936;2023-06-24T02:12:42;21.00;15.67;12.00
77354;PMS7003;66422;51.202;19.936;2023-06-24T02:28:04;20.50;14.50;10.50
77354;PMS7003;66422;51.202;19.936;2023-06-24T02:43:27;14.00;13.00;10.00
77354;PMS7003;66422;51.202;19.936;2023-06-24T02:58:47;15.33;14.00;10.00
77354;PMS7003;66422;51.202;19.936;2023-06-24T03:14:16;21.00;17.00;13.00
77354;PMS7003;66422;51.202;19.936;2023-06-24T03:29:37;18.00;16.00;13.00
77354;PMS7003;66422;51.202;19.936;2023-06-24T03:45:03;16.00;11.00;9.33
77354;PMS7003;66422;51.202;19.936;2023-06-24T04:00:24;20.00;18.67;12.33
77354;PMS7003;66422;51.202;19.936;2023-06-24T04:15:44;19.00;18.00;12.00
77354;PMS7003;66422;51.202;19.936;2023-06-24T04:31:04;19.00;17.67;13.00
77354;PMS7003;66422;51.202;19.936;2023-06-24T04:46:23;18.00;17.00;11.00
77354;PMS7003;66422;51.202;19.936;2023-06-24T05:01:43;17.00;16.00;11.00
77354;PMS7003;66422;51.202;19.936;2023-06-24T05:17:03;17.67;15.00;11.33
77354;PMS7003;66422;51.202;19.936;2023-06-24T05:32:22;16.50;13.50;10.00
77354;PMS7003;66422;51.202;19.936;2023-06-24T05:47:42;14.50;12.00;10.00
77354;PMS7003;66422;51.202;19.936;2023-06-24T06:03:01;12.50;10.50;8.00
77354;PMS7003;66422;51.202;19.936;2023-06-24T06:18:21;13.00;13.00;11.00
77354;PMS7003;66422;51.202;19.936;2023-06-24T06:33:41;11.50;9.50;7.50
77354;PMS7003;66422;51.202;19.936;2023-06-24T06:49:02;12.00;12.00;9.33
77354;PMS7003;66422;51.202;19.936;2023-06-24T07:04:21;18.00;16.00;12.00
77354;PMS7003;66422;51.202;19.936;2023-06-24T07:19:41;14.33;12.67;9.67
77354;PMS7003;66422;51.202;19.936;2023-06-24T07:35:01;15.67;13.33;10.00
77354;PMS7003;66422;51.202;19.936;2023-06-24T07:50:20;9.67;9.67;7.33
77354;PMS7003;66422;51.202;19.936;2023-06-24T08:05:40;12.50;11.50;8.50
77354;PMS7003;66422;51.202;19.936;2023-06-24T08:21:00;18.00;17.00;13.00
77354;PMS7003;66422;51.202;19.936;2023-06-24T08:36:21;19.67;15.00;13.00
77354;PMS7003;66422;51.202;19.936;2023-06-24T08:51:41;13.00;13.00;10.00
77354;PMS7003;66422;51.202;19.936;2023-06-24T09:07:05;17.00;13.00;10.00
77354;PMS7003;66422;51.202;19.936;2023-06-24T09:22:25;16.00;16.00;13.00
77354;PMS7003;66422;51.202;19.936;2023-06-24T09:37:57;21.75;16.75;13.50
77354;PMS7003;66422;51.202;19.936;2023-06-24T09:53:18;16.67;16.00;13.00
77354;PMS7003;66422;51.202;19.936;2023-06-24T10:08:39;12.50;12.50;10.00
77354;PMS7003;66422;51.202;19.936;2023-06-24T10:23:58;15.00;14.00;9.00
77354;PMS7003;66422;51.202;19.936;2023-06-24T10:54:57;16.00;16.00;12.50
77354;PMS7003;66422;51.202;19.936;2023-06-24T11:10:17;16.00;14.50;11.50
77354;PMS7003;66422;51.202;19.936;2023-06-24T11:25:40;17.67;12.67;10.33
77354;PMS7003;66422;51.202;19.936;2023-06-24T11:41:01;19.67;19.67;15.00
77354;PMS7003;66422;51.202;19.936;2023-06-24T11:56:33;15.67;13.33;10.67
77354;PMS7003;66422;51.202;19.936;2023-06-24T12:12:00;18.00;18.00;13.00
77354;PMS7003;66422;51.202;19.936;2023-06-24T12:27:19;17.33;17.33;12.67
77354;PMS7003;66422;51.202;19.936;2023-06-24T12:42:38;11.00;11.00;8.00
77354;PMS7003;66422;51.202;19.936;2023-06-24T12:57:58;16.00;15.50;12.00
77354;PMS7003;66422;51.202;19.936;2023-06-24T13:13:18;13.00;11.00;8.00
77354;PMS7003;66422;51.202;19.936;2023-06-24T13:28:38;14.00;14.00;11.00
77354;PMS7003;66422;51.202;19.936;2023-06-24T13:43:59;13.00;12.00;9.00
77354;PMS7003;66422;51.202;19.936;2023-06-24T13:59:20;11.67;8.00;6.67
77354;PMS7003;66422;51.202;19.936;2023-06-24T14:14:39;9.33;8.00;5.33
77354;PMS7003;66422;51.202;19.936;2023-06-24T14:29:59;7.00;6.00;5.00
77354;PMS7003;66422;51.202;19.936;2023-06-24T14:45:19;6.00;6.00;5.50
77354;PMS7003;66422;51.202;19.936;2023-06-24T15:00:39;9.00;7.00;5.00
77354;PMS7003;66422;51.202;19.936;2023-06-24T15:15:59;10.67;7.33;5.33
77354;PMS7003;66422;51.202;19.936;2023-06-24T15:31:19;14.00;11.00;8.00
77354;PMS7003;66422;51.202;19.936;2023-06-24T15:46:39;6.00;6.00;4.67
77354;PMS7003;66422;51.202;19.936;2023-06-24T16:01:59;8.50;8.00;6.50
77354;PMS7003;66422;51.202;19.936;2023-06-24T16:17:19;8.00;8.00;5.00
77354;PMS7003;66422;51.202;19.936;2023-06-24T16:32:39;9.50;8.50;6.50
77354;PMS7003;66422;51.202;19.936;2023-06-24T16:47:59;10.00;8.00;5.75
77354;PMS7003;66422;51.202;19.936;2023-06-24T17:03:18;6.33;6.33;5.67
77354;PMS7003;66422;51.202;19.936;2023-06-24T17:18:38;11.67;10.67;7.33
77354;PMS7003;66422;51.202;19.936;2023-06-24T17:33:57;9.00;5.00;6.00
77354;PMS7003;66422;51.202;19.936;2023-06-24T17:49:18;2.00;2.00;1.00
77354;PMS7003;66422;51.202;19.936;2023-06-24T18:04:38;4.00;4.00;3.67
77354;PMS7003;66422;51.202;19.936;2023-06-24T18:19:57;11.67;9.67;7.33
77354;PMS7003;66422;51.202;19.936;2023-06-24T18:35:17;7.00;7.00;6.50
77354;PMS7003;66422;51.202;19.936;2023-06-24T18:50:36;9.00;7.50;7.00
77354;PMS7003;66422;51.202;19.936;2023-06-24T19:05:57;12.50;11.50;9.00
77354;PMS7003;66422;51.202;19.936;2023-06-24T19:21:17;12.50;9.75;7.75
77354;PMS7003;66422;51.202;19.936;2023-06-24T19:36:36;18.33;15.33;10.00
77354;PMS7003;66422;51.202;19.936;2023-06-24T19:51:56;8.75;6.00;5.25
77354;PMS7003;66422;51.202;19.936;2023-06-24T20:07:16;15.00;13.00;9.00
77354;PMS7003;66422;51.202;19.936;2023-06-24T20:22:35;24.00;21.50;15.00
77354;PMS7003;66422;51.202;19.936;2023-06-24T20:37:55;25.00;19.00;12.00
77354;PMS7003;66422;51.202;19.936;2023-06-24T20:53:15;34.50;28.50;18.00
77354;PMS7003;66422;51.202;19.936;2023-06-24T21:08:35;31.50;23.75;17.00
77354;PMS7003;66422;51.202;19.936;2023-06-24T21:23:55;18.50;16.50;12.00
77354;PMS7003;66422;51.202;19.936;2023-06-24T21:39:14;28.00;21.00;14.00
77354;PMS7003;66422;51.202;19.936;2023-06-24T21:54:34;23.00;20.50;14.25
77354;PMS7003;66422;51.202;19.936;2023-06-24T22:09:53;21.00;20.00;14.00
77354;PMS7003;66422;51.202;19.936;2023-06-24T22:25:13;24.67;20.33;15.00
77354;PMS7003;66422;51.202;19.936;2023-06-24T22:40:33;19.50;11.50;7.00
77354;PMS7003;66422;51.202;19.936;2023-06-24T22:55:52;33.00;23.00;17.00
77354;PMS7003;66422;51.202;19.936;2023-06-24T23:11:12;27.00;24.00;16.00
77354;PMS7003;66422;51.202;19.936;2023-06-24T23:26:32;26.00;25.00;18.00
77354;PMS7003;66422;51.202;19.936;2023-06-24T23:41:59;23.33;21.67;15.33
77354;PMS7003;66422;51.202;19.936;2023-06-24T23:57:19;28.50;24.50;18.00
